Time;durP1;ratioP1;P1;durP2;ratioP2;P2;SDS_P1;SDS_P2;PMS_P1;PMS_P2;Temp;Humidity;BMP_temperature;BMP_pressure;BME280_temperature;BME280_humidity;BME280_pressure;Samples;Min_cycle;Max_cycle;Signal;HPM_P1;HPM_P2
2022/03/03 00:01:44;;;;;;;31.80;13.68;;;;;;;;;;5122939;27;20046;-74
2022/03/03 00:04:10;;;;;;;28.83;13.05;;;;;;;;;;5105847;27;20717;-74
2022/03/03 00:06:36;;;;;;;27.38;12.27;;;;;;;;;;5097600;27;20031;-73
2022/03/03 00:09:03;;;;;;;31.50;13.30;;;;;;;;;;5099411;27;20024;-74
2022/03/03 00:11:30;;;;;;;29.98;12.35;;;;;;;;;;5096539;27;20471;-73
2022/03/03 00:13:55;;;;;;;30.95;12.65;;;;;;;;;;5098832;27;20039;-74
2022/03/03 00:16:20;;;;;;;34.33;13.73;;;;;;;;;;5092251;28;20040;-75
2022/03/03 00:18:46;;;;;;;32.15;13.02;;;;;;;;;;5098382;27;20134;-74
2022/03/03 00:21:11;;;;;;;33.15;13.35;;;;;;;;;;5100784;28;20488;-73
2022/03/03 00:23:36;;;;;;;29.52;13.00;;;;;;;;;;5098923;27;20116;-74
2022/03/03 00:26:02;;;;;;;34.05;12.98;;;;;;;;;;5104889;27;20084;-74
2022/03/03 00:28:28;;;;;;;29.25;13.10;;;;;;;;;;5107051;27;20040;-74
2022/03/03 00:30:53;;;;;;;32.75;13.15;;;;;;;;;;5107320;27;20902;-74
2022/03/03 00:33:18;;;;;;;30.50;13.07;;;;;;;;;;5101601;28;20046;-73
2022/03/03 00:35:44;;;;;;;31.48;12.98;;;;;;;;;;5101956;27;20401;-73
2022/03/03 00:38:10;;;;;;;30.60;12.73;;;;;;;;;;5103814;27;20028;-73
2022/03/03 00:40:35;;;;;;;34.30;13.00;;;;;;;;;;5102260;27;20071;-73
2022/03/03 00:43:01;;;;;;;30.27;12.00;;;;;;;;;;5102083;27;20059;-74
2022/03/03 00:45:26;;;;;;;28.10;12.68;;;;;;;;;;5101470;28;20023;-74
2022/03/03 00:47:51;;;;;;;29.85;13.15;;;;;;;;;;5101260;28;20037;-74
2022/03/03 00:50:17;;;;;;;32.17;12.43;;;;;;;;;;5099583;28;20039;-74
2022/03/03 00:52:42;;;;;;;33.47;13.05;;;;;;;;;;5099794;28;20625;-74
2022/03/03 00:55:08;;;;;;;30.10;13.10;;;;;;;;;;5105303;27;20044;-74
2022/03/03 00:57:34;;;;;;;26.02;11.68;;;;;;;;;;5107909;27;20055;-74
2022/03/03 01:00:00;;;;;;;31.58;12.82;;;;;;;;;;5115769;27;20054;-73
2022/03/03 01:02:25;;;;;;;30.42;12.70;;;;;;;;;;5105312;28;20065;-73
2022/03/03 01:04:51;;;;;;;30.58;12.90;;;;;;;;;;5099290;27;20045;-73
2022/03/03 01:07:16;;;;;;;29.80;12.50;;;;;;;;;;5098264;28;20569;-73
2022/03/03 01:09:42;;;;;;;31.02;12.82;;;;;;;;;;5098172;27;20043;-73
2022/03/03 01:12:07;;;;;;;28.70;11.80;;;;;;;;;;5106839;28;20036;-74
2022/03/03 01:14:33;;;;;;;32.95;12.35;;;;;;;;;;5104771;28;20124;-74
2022/03/03 01:16:59;;;;;;;26.63;12.20;;;;;;;;;;5103925;28;20182;-73
2022/03/03 01:19:24;;;;;;;31.65;12.38;;;;;;;;;;5090639;28;20079;-74
2022/03/03 01:21:49;;;;;;;29.13;12.65;;;;;;;;;;5080386;28;20048;-74
2022/03/03 01:24:15;;;;;;;31.83;11.85;;;;;;;;;;5085767;28;20085;-74
2022/03/03 01:26:40;;;;;;;29.77;12.23;;;;;;;;;;5083697;28;20051;-73
2022/03/03 01:29:06;;;;;;;26.92;11.23;;;;;;;;;;5088047;28;20032;-74
2022/03/03 01:31:31;;;;;;;27.95;11.70;;;;;;;;;;5098992;28;20040;-73
2022/03/03 01:33:56;;;;;;;25.25;10.65;;;;;;;;;;5103582;27;20047;-73
2022/03/03 01:36:22;;;;;;;27.33;10.93;;;;;;;;;;5101959;27;20020;-73
2022/03/03 01:38:47;;;;;;;26.17;10.82;;;;;;;;;;5111349;27;20032;-74
2022/03/03 01:41:12;;;;;;;28.40;11.52;;;;;;;;;;5110812;27;20523;-74
2022/03/03 01:43:38;;;;;;;26.63;11.27;;;;;;;;;;5111005;27;20623;-73
2022/03/03 01:46:04;;;;;;;24.95;11.10;;;;;;;;;;5107119;27;20457;-73
2022/03/03 01:48:30;;;;;;;25.33;11.35;;;;;;;;;;5110344;27;20031;-73
2022/03/03 01:50:55;;;;;;;22.60;9.85;;;;;;;;;;5110008;28;20063;-73
2022/03/03 01:53:21;;;;;;;26.65;11.27;;;;;;;;;;5111005;27;20211;-73
2022/03/03 01:55:46;;;;;;;27.02;11.75;;;;;;;;;;5102306;27;20032;-73
2022/03/03 01:58:12;;;;;;;26.02;11.07;;;;;;;;;;5108157;27;20055;-73
2022/03/03 02:00:38;;;;;;;25.08;11.48;;;;;;;;;;5101425;27;20492;-73
2022/03/03 02:03:03;;;;;;;23.85;10.18;;;;;;;;;;5111231;27;20416;-73
2022/03/03 02:05:30;;;;;;;24.23;10.75;;;;;;;;;;5090209;27;20047;-73
2022/03/03 02:07:57;;;;;;;26.75;10.88;;;;;;;;;;5107673;27;20032;-74
2022/03/03 02:10:23;;;;;;;28.88;12.18;;;;;;;;;;5089901;28;20550;-74
2022/03/03 02:12:48;;;;;;;25.42;10.18;;;;;;;;;;5092993;28;20073;-74
2022/03/03 02:15:18;;;;;;;24.30;10.98;;;;;;;;;;5107079;27;20067;-74
2022/03/03 02:17:44;;;;;;;27.30;10.68;;;;;;;;;;5096270;28;20543;-74
2022/03/03 02:20:30;;;;;;;23.60;10.00;;;;;;;;;;5082467;27;20037;-74
2022/03/03 02:22:57;;;;;;;22.88;9.88;;;;;;;;;;5089934;27;20047;-73
2022/03/03 02:25:24;;;;;;;28.38;10.40;;;;;;;;;;5105477;28;20032;-74
2022/03/03 02:27:50;;;;;;;24.75;9.70;;;;;;;;;;5100557;28;20038;-73
2022/03/03 02:30:17;;;;;;;31.67;11.48;;;;;;;;;;5105455;27;20447;-74
2022/03/03 02:32:44;;;;;;;25.23;10.35;;;;;;;;;;5106511;27;20051;-74
2022/03/03 02:35:10;;;;;;;24.10;10.45;;;;;;;;;;5107862;28;20134;-74
2022/03/03 02:37:40;;;;;;;26.00;10.98;;;;;;;;;;5104088;27;20047;-73
2022/03/03 02:40:09;;;;;;;25.67;11.13;;;;;;;;;;5110685;27;20039;-74
2022/03/03 02:42:34;;;;;;;30.10;10.88;;;;;;;;;;5114342;27;20032;-73
2022/03/03 02:45:01;;;;;;;27.48;10.77;;;;;;;;;;5108574;28;20039;-73
2022/03/03 02:47:27;;;;;;;25.05;11.15;;;;;;;;;;5090520;27;20037;-74
2022/03/03 02:49:53;;;;;;;25.27;10.68;;;;;;;;;;5089311;28;20539;-74
2022/03/03 02:52:18;;;;;;;23.75;10.68;;;;;;;;;;5096162;27;20105;-73
2022/03/03 02:54:43;;;;;;;24.63;10.90;;;;;;;;;;5109192;27;20072;-74
2022/03/03 02:59:53;;;;;;;21.52;10.02;;;;;;;;;;5097416;28;20031;-73
2022/03/03 03:02:18;;;;;;;23.85;10.25;;;;;;;;;;5103799;27;20035;-73
2022/03/03 03:04:43;;;;;;;23.00;9.80;;;;;;;;;;5100970;27;20032;-73
2022/03/03 03:07:09;;;;;;;26.70;10.85;;;;;;;;;;5107637;27;20710;-73
2022/03/03 03:09:34;;;;;;;25.77;11.18;;;;;;;;;;5101411;27;20629;-73
2022/03/03 03:11:59;;;;;;;25.80;11.13;;;;;;;;;;5081517;28;20462;-73
2022/03/03 03:14:25;;;;;;;29.80;11.90;;;;;;;;;;5083719;28;20484;-74
2022/03/03 03:16:50;;;;;;;27.52;11.57;;;;;;;;;;5084962;28;20532;-73
2022/03/03 03:19:16;;;;;;;26.70;10.98;;;;;;;;;;5083564;28;20593;-73
2022/03/03 03:21:41;;;;;;;25.70;10.63;;;;;;;;;;5085861;27;20016;-73
2022/03/03 03:24:07;;;;;;;27.40;11.05;;;;;;;;;;5113882;27;20024;-73
2022/03/03 03:26:32;;;;;;;23.40;10.82;;;;;;;;;;5097572;28;20547;-73
2022/03/03 03:28:57;;;;;;;26.05;11.07;;;;;;;;;;5099939;27;20508;-73
2022/03/03 03:31:23;;;;;;;27.40;11.10;;;;;;;;;;5099653;27;20032;-73
2022/03/03 03:33:48;;;;;;;25.95;11.82;;;;;;;;;;5099238;27;20043;-73
2022/03/03 03:36:13;;;;;;;29.42;11.60;;;;;;;;;;5098426;27;20032;-74
2022/03/03 03:38:39;;;;;;;26.60;11.02;;;;;;;;;;5097590;27;20032;-73
2022/03/03 03:41:05;;;;;;;30.73;12.10;;;;;;;;;;5099481;27;20035;-73
2022/03/03 03:43:30;;;;;;;21.35;10.63;;;;;;;;;;5107070;27;20028;-74
2022/03/03 03:45:56;;;;;;;26.92;11.05;;;;;;;;;;5096397;28;20460;-74
2022/03/03 03:48:22;;;;;;;25.95;10.98;;;;;;;;;;5098394;28;20059;-72
2022/03/03 03:50:47;;;;;;;26.27;11.25;;;;;;;;;;5102608;27;20126;-74
2022/03/03 03:53:12;;;;;;;24.90;11.40;;;;;;;;;;5095851;27;21082;-74
2022/03/03 03:55:38;;;;;;;28.08;11.18;;;;;;;;;;5101410;27;20039;-74
2022/03/03 03:58:03;;;;;;;28.95;10.98;;;;;;;;;;5097245;28;20043;-73
2022/03/03 04:00:28;;;;;;;31.85;12.55;;;;;;;;;;5102351;28;20012;-74
2022/03/03 04:02:54;;;;;;;25.05;11.10;;;;;;;;;;5094679;27;20031;-73
2022/03/03 04:05:20;;;;;;;26.15;11.18;;;;;;;;;;5098849;27;20059;-74
2022/03/03 04:07:45;;;;;;;28.70;11.52;;;;;;;;;;5107299;27;20031;-74
2022/03/03 04:10:11;;;;;;;29.00;11.18;;;;;;;;;;5107103;27;20484;-74
2022/03/03 04:12:38;;;;;;;27.13;10.18;;;;;;;;;;5108839;27;20042;-73
2022/03/03 04:15:03;;;;;;;25.50;11.05;;;;;;;;;;5104012;28;20012;-73
2022/03/03 04:17:29;;;;;;;25.95;10.98;;;;;;;;;;5087088;27;20065;-74
2022/03/03 04:19:54;;;;;;;27.98;11.30;;;;;;;;;;5084424;28;20028;-74
2022/03/03 04:22:20;;;;;;;25.95;11.50;;;;;;;;;;5086573;28;20020;-74
2022/03/03 04:24:45;;;;;;;26.80;11.07;;;;;;;;;;5086025;28;20028;-73
2022/03/03 04:27:11;;;;;;;26.30;10.65;;;;;;;;;;5110054;27;20024;-74
2022/03/03 04:29:36;;;;;;;29.35;12.35;;;;;;;;;;5083241;27;20035;-73
2022/03/03 04:32:03;;;;;;;26.77;11.38;;;;;;;;;;5081878;28;20058;-73
2022/03/03 04:34:28;;;;;;;33.35;11.93;;;;;;;;;;5085830;28;20039;-74
2022/03/03 04:36:54;;;;;;;27.55;11.40;;;;;;;;;;5083247;28;20082;-73
2022/03/03 04:39:19;;;;;;;25.30;11.05;;;;;;;;;;5082944;28;20073;-73
2022/03/03 04:41:45;;;;;;;26.48;11.30;;;;;;;;;;5079782;28;20525;-73
2022/03/03 04:44:10;;;;;;;26.02;11.23;;;;;;;;;;5083601;28;20036;-74
2022/03/03 04:46:36;;;;;;;29.05;11.50;;;;;;;;;;5080701;28;20584;-73
2022/03/03 04:49:02;;;;;;;34.45;13.15;;;;;;;;;;5079932;28;20495;-74
2022/03/03 04:51:28;;;;;;;24.27;10.88;;;;;;;;;;5086369;28;20028;-74
2022/03/03 04:53:54;;;;;;;25.48;11.07;;;;;;;;;;5086430;28;20043;-73
2022/03/03 04:56:19;;;;;;;26.52;11.40;;;;;;;;;;5085500;28;20028;-73
2022/03/03 04:58:45;;;;;;;32.60;13.07;;;;;;;;;;5084910;28;20170;-73
2022/03/03 05:01:11;;;;;;;30.83;12.77;;;;;;;;;;5079155;28;20047;-74
2022/03/03 05:03:36;;;;;;;30.08;12.35;;;;;;;;;;5087261;28;20030;-73
2022/03/03 05:06:02;;;;;;;30.60;12.35;;;;;;;;;;5088074;28;20388;-74
2022/03/03 05:08:27;;;;;;;32.78;13.18;;;;;;;;;;5087682;28;20036;-74
2022/03/03 05:10:53;;;;;;;26.50;12.18;;;;;;;;;;5082403;28;20044;-74
2022/03/03 05:13:18;;;;;;;32.13;12.32;;;;;;;;;;5080582;28;20025;-73
2022/03/03 05:15:44;;;;;;;30.90;12.43;;;;;;;;;;5082721;28;20078;-73
2022/03/03 05:18:09;;;;;;;29.85;12.40;;;;;;;;;;5081623;28;20028;-74
2022/03/03 05:20:35;;;;;;;36.55;12.15;;;;;;;;;;5083434;28;20043;-73
2022/03/03 05:23:00;;;;;;;27.55;12.02;;;;;;;;;;5079007;27;20032;-74
2022/03/03 05:25:25;;;;;;;31.33;12.35;;;;;;;;;;5079657;28;20042;-74
2022/03/03 05:27:51;;;;;;;27.17;11.02;;;;;;;;;;5081668;28;20024;-74
2022/03/03 05:30:16;;;;;;;26.95;11.15;;;;;;;;;;5088073;28;20020;-74
2022/03/03 05:32:41;;;;;;;27.88;11.65;;;;;;;;;;5087000;27;20086;-74
2022/03/03 05:35:07;;;;;;;27.58;10.50;;;;;;;;;;5086160;27;20429;-74
2022/03/03 05:37:34;;;;;;;29.65;10.80;;;;;;;;;;5080844;28;20509;-73
2022/03/03 05:40:02;;;;;;;26.88;11.40;;;;;;;;;;5083111;27;20032;-74
2022/03/03 05:42:28;;;;;;;28.85;11.98;;;;;;;;;;5081304;28;21173;-73
2022/03/03 05:44:53;;;;;;;28.98;11.70;;;;;;;;;;5086967;27;20409;-74
2022/03/03 05:47:19;;;;;;;31.10;11.48;;;;;;;;;;5078555;28;20464;-73
2022/03/03 05:49:50;;;;;;;29.83;12.40;;;;;;;;;;5080285;27;20066;-73
2022/03/03 05:52:16;;;;;;;28.75;11.90;;;;;;;;;;5094089;27;20031;-74
2022/03/03 05:54:41;;;;;;;26.88;11.27;;;;;;;;;;5095467;28;20024;-74
2022/03/03 05:57:12;;;;;;;28.17;11.48;;;;;;;;;;5099850;28;20528;-73
2022/03/03 05:59:41;;;;;;;22.98;10.00;;;;;;;;;;5076831;27;20044;-73
2022/03/03 06:02:09;;;;;;;31.38;11.02;;;;;;;;;;5075925;28;20063;-73
2022/03/03 06:04:39;;;;;;;30.60;11.32;;;;;;;;;;5070887;28;20070;-72
2022/03/03 06:07:09;;;;;;;28.52;11.70;;;;;;;;;;5081571;28;20136;-74
2022/03/03 06:09:36;;;;;;;29.15;11.77;;;;;;;;;;5100794;28;20051;-73
2022/03/03 06:12:13;;;;;;;33.72;12.02;;;;;;;;;;5086933;28;20105;-75
2022/03/03 06:14:44;;;;;;;29.67;11.57;;;;;;;;;;5099852;28;20032;-74
2022/03/03 06:17:10;;;;;;;31.55;11.40;;;;;;;;;;5095226;28;20067;-74
2022/03/03 06:19:41;;;;;;;32.22;11.48;;;;;;;;;;5113968;27;20062;-74
2022/03/03 06:22:10;;;;;;;29.02;10.93;;;;;;;;;;5097731;27;20039;-74
2022/03/03 06:24:37;;;;;;;29.17;12.38;;;;;;;;;;5089599;28;20023;-74
2022/03/03 06:27:03;;;;;;;29.88;12.82;;;;;;;;;;5089504;28;20040;-74
2022/03/03 06:29:29;;;;;;;32.00;13.40;;;;;;;;;;5098126;28;20039;-73
2022/03/03 06:31:54;;;;;;;39.15;15.38;;;;;;;;;;5106863;27;20035;-74
2022/03/03 06:34:20;;;;;;;30.92;13.32;;;;;;;;;;5102408;27;20034;-73
2022/03/03 06:36:49;;;;;;;38.42;14.88;;;;;;;;;;5107727;27;20106;-74
2022/03/03 06:39:14;;;;;;;35.80;14.82;;;;;;;;;;5103400;27;20028;-73
2022/03/03 06:41:40;;;;;;;34.40;13.77;;;;;;;;;;5108602;27;20128;-73
2022/03/03 06:44:05;;;;;;;40.15;14.68;;;;;;;;;;5103410;27;20119;-73
2022/03/03 06:46:30;;;;;;;32.08;12.82;;;;;;;;;;5107074;27;20034;-72
2022/03/03 06:48:56;;;;;;;33.10;13.57;;;;;;;;;;5107100;27;20119;-73
2022/03/03 06:51:24;;;;;;;33.50;13.70;;;;;;;;;;5111633;27;20019;-73
2022/03/03 06:53:55;;;;;;;38.17;13.63;;;;;;;;;;5108189;27;20127;-74
2022/03/03 06:56:23;;;;;;;33.00;12.25;;;;;;;;;;5101235;27;20032;-73
2022/03/03 06:58:50;;;;;;;33.78;11.88;;;;;;;;;;5096593;27;20047;-73
2022/03/03 07:01:21;;;;;;;30.13;12.20;;;;;;;;;;5084152;28;20048;-73
2022/03/03 07:03:47;;;;;;;33.60;12.05;;;;;;;;;;5078137;28;20024;-73
2022/03/03 07:06:13;;;;;;;28.98;10.93;;;;;;;;;;5084984;28;20485;-73
2022/03/03 07:08:39;;;;;;;31.75;13.38;;;;;;;;;;5083753;27;20040;-74
2022/03/03 07:11:05;;;;;;;30.15;12.98;;;;;;;;;;5090251;27;20047;-71
2022/03/03 07:13:31;;;;;;;28.90;12.73;;;;;;;;;;5095290;27;20039;-71
2022/03/03 07:16:25;;;;;;;34.15;13.63;;;;;;;;;;5096752;27;20384;-71
2022/03/03 07:18:52;;;;;;;28.65;12.43;;;;;;;;;;5103270;27;20043;-72
2022/03/03 07:21:43;;;;;;;32.95;12.10;;;;;;;;;;5076828;28;20410;-72
2022/03/03 07:24:19;;;;;;;32.72;12.25;;;;;;;;;;5086097;28;20097;-73
2022/03/03 07:26:47;;;;;;;33.53;13.15;;;;;;;;;;5083779;28;20028;-73
2022/03/03 07:29:16;;;;;;;30.67;12.07;;;;;;;;;;5084102;27;20036;-73
2022/03/03 07:31:52;;;;;;;30.25;11.55;;;;;;;;;;5093895;27;20045;-73
2022/03/03 07:34:29;;;;;;;32.85;12.45;;;;;;;;;;5087935;27;20198;-72
2022/03/03 07:37:00;;;;;;;35.80;13.43;;;;;;;;;;5083589;27;20098;-73
2022/03/03 07:39:31;;;;;;;34.95;13.20;;;;;;;;;;5099755;28;20016;-73
2022/03/03 07:41:59;;;;;;;33.35;12.18;;;;;;;;;;5102629;27;20043;-73
2022/03/03 07:44:25;;;;;;;30.58;12.40;;;;;;;;;;5097764;28;20107;-72
2022/03/03 07:46:50;;;;;;;31.17;13.20;;;;;;;;;;5112349;27;20442;-73
2022/03/03 07:49:20;;;;;;;38.45;13.32;;;;;;;;;;5105273;27;20040;-73
2022/03/03 07:51:45;;;;;;;41.67;13.95;;;;;;;;;;5103062;27;20082;-73
2022/03/03 07:54:11;;;;;;;30.27;13.15;;;;;;;;;;5101233;27;20769;-74
2022/03/03 07:56:41;;;;;;;35.78;14.55;;;;;;;;;;5096503;28;20094;-73
2022/03/03 07:59:12;;;;;;;35.70;13.68;;;;;;;;;;5101420;27;20692;-72
2022/03/03 08:01:38;;;;;;;33.75;13.63;;;;;;;;;;5087633;28;20058;-73
2022/03/03 08:04:04;;;;;;;39.15;13.88;;;;;;;;;;5100818;27;20137;-75
2022/03/03 08:06:32;;;;;;;36.53;13.77;;;;;;;;;;5107073;27;20031;-75
2022/03/03 08:08:59;;;;;;;32.60;13.10;;;;;;;;;;5101567;27;20498;-72
2022/03/03 08:11:27;;;;;;;35.85;13.95;;;;;;;;;;5103085;28;20122;-73
2022/03/03 08:13:53;;;;;;;29.88;13.02;;;;;;;;;;5103586;27;20043;-72
2022/03/03 08:16:19;;;;;;;30.33;13.23;;;;;;;;;;5106151;27;20088;-74
2022/03/03 08:18:47;;;;;;;31.13;13.02;;;;;;;;;;5102203;27;20023;-74
2022/03/03 08:21:14;;;;;;;33.08;13.52;;;;;;;;;;5104523;27;20027;-73
2022/03/03 08:23:42;;;;;;;35.03;14.15;;;;;;;;;;5102127;27;20050;-72
2022/03/03 08:26:09;;;;;;;34.72;13.38;;;;;;;;;;5101895;27;20599;-72
2022/03/03 08:28:34;;;;;;;32.15;13.68;;;;;;;;;;5095946;27;20450;-74
2022/03/03 08:31:05;;;;;;;34.35;13.77;;;;;;;;;;5101350;27;20036;-77
2022/03/03 08:33:45;;;;;;;35.45;14.07;;;;;;;;;;5108564;27;20019;-77
2022/03/03 08:36:20;;;;;;;40.72;15.00;;;;;;;;;;5079785;28;20052;-74
2022/03/03 08:38:51;;;;;;;36.72;14.50;;;;;;;;;;5086595;28;20115;-75
2022/03/03 08:41:20;;;;;;;37.72;15.75;;;;;;;;;;5082370;28;20048;-75
2022/03/03 08:43:49;;;;;;;37.83;16.30;;;;;;;;;;5081038;28;20044;-75
2022/03/03 08:46:20;;;;;;;43.35;16.33;;;;;;;;;;5082402;28;20115;-75
2022/03/03 08:48:47;;;;;;;41.72;17.08;;;;;;;;;;5077680;27;20112;-74
2022/03/03 08:51:15;;;;;;;44.55;16.75;;;;;;;;;;5073309;28;20762;-76
2022/03/03 08:53:40;;;;;;;46.55;18.80;;;;;;;;;;5070702;28;20063;-75
2022/03/03 08:56:06;;;;;;;45.22;18.20;;;;;;;;;;5089668;27;20512;-75
2022/03/03 08:58:31;;;;;;;50.67;18.30;;;;;;;;;;5103546;28;20110;-77
2022/03/03 09:00:56;;;;;;;49.70;19.50;;;;;;;;;;5096583;27;20069;-76
2022/03/03 09:03:23;;;;;;;44.72;18.58;;;;;;;;;;5092232;27;20043;-77
2022/03/03 09:05:49;;;;;;;48.92;18.45;;;;;;;;;;5109101;27;20681;-74
2022/03/03 09:08:15;;;;;;;50.83;19.90;;;;;;;;;;5105006;28;20027;-75
2022/03/03 09:10:41;;;;;;;52.95;22.00;;;;;;;;;;5104031;27;20043;-75
2022/03/03 09:13:06;;;;;;;62.08;24.25;;;;;;;;;;5104082;28;20447;-74
2022/03/03 09:15:33;;;;;;;69.03;23.83;;;;;;;;;;5103465;27;20032;-74
2022/03/03 09:17:59;;;;;;;60.08;23.38;;;;;;;;;;5092231;27;20036;-75
2022/03/03 09:20:24;;;;;;;65.57;24.15;;;;;;;;;;5103403;27;20025;-75
2022/03/03 09:22:50;;;;;;;61.08;23.15;;;;;;;;;;5107245;27;20404;-76
2022/03/03 09:25:15;;;;;;;61.40;23.98;;;;;;;;;;5100613;27;20570;-77
2022/03/03 09:27:41;;;;;;;60.97;23.85;;;;;;;;;;5093620;28;21031;-77
2022/03/03 09:30:08;;;;;;;63.67;24.17;;;;;;;;;;5101134;27;20055;-76
2022/03/03 09:32:35;;;;;;;74.63;24.25;;;;;;;;;;5100966;27;20027;-77
2022/03/03 09:35:00;;;;;;;72.18;27.33;;;;;;;;;;5103367;28;20042;-79
2022/03/03 09:37:25;;;;;;;64.85;24.83;;;;;;;;;;5102309;28;20031;-77
2022/03/03 09:39:51;;;;;;;69.38;26.77;;;;;;;;;;5103774;28;20051;-77
2022/03/03 09:42:17;;;;;;;61.92;20.70;;;;;;;;;;5108701;28;20031;-76
2022/03/03 09:44:43;;;;;;;56.88;23.88;;;;;;;;;;5109307;27;20040;-77
2022/03/03 09:47:12;;;;;;;68.95;26.02;;;;;;;;;;5118644;27;20015;-79
2022/03/03 09:49:38;;;;;;;72.05;26.40;;;;;;;;;;5106780;28;20035;-78
2022/03/03 09:52:15;;;;;;;71.10;27.63;;;;;;;;;;5108835;27;20114;-77
2022/03/03 09:54:42;;;;;;;85.50;29.48;;;;;;;;;;5104599;28;20027;-76
2022/03/03 09:57:08;;;;;;;88.38;31.75;;;;;;;;;;5106494;27;20693;-78
2022/03/03 09:59:33;;;;;;;79.63;29.70;;;;;;;;;;5103692;27;20100;-77
2022/03/03 10:02:05;;;;;;;82.35;31.48;;;;;;;;;;5105896;28;20115;-75
2022/03/03 10:04:32;;;;;;;85.90;30.87;;;;;;;;;;5104849;27;20043;-77
2022/03/03 10:07:06;;;;;;;78.32;31.17;;;;;;;;;;5106040;28;20573;-77
2022/03/03 10:09:32;;;;;;;84.15;30.38;;;;;;;;;;5100776;27;20047;-76
2022/03/03 10:12:05;;;;;;;85.03;32.45;;;;;;;;;;5106847;27;20042;-77
2022/03/03 10:14:36;;;;;;;88.10;32.67;;;;;;;;;;5106555;27;20060;-80
2022/03/03 10:17:03;;;;;;;91.43;34.40;;;;;;;;;;5108009;27;20032;-77
2022/03/03 10:19:29;;;;;;;88.65;32.58;;;;;;;;;;5111836;27;20059;-77
2022/03/03 10:21:55;;;;;;;89.72;34.00;;;;;;;;;;5099871;27;20067;-74
2022/03/03 10:24:24;;;;;;;91.47;35.90;;;;;;;;;;5099131;27;20036;-73
2022/03/03 10:27:03;;;;;;;85.47;34.13;;;;;;;;;;5098039;27;20040;-74
2022/03/03 10:29:29;;;;;;;82.55;32.45;;;;;;;;;;5084930;28;20120;-75
2022/03/03 10:31:57;;;;;;;76.88;31.15;;;;;;;;;;5077909;28;20552;-76
2022/03/03 10:34:33;;;;;;;87.05;29.88;;;;;;;;;;5084023;27;20040;-76
2022/03/03 10:37:07;;;;;;;73.40;29.35;;;;;;;;;;5073427;28;20036;-73
2022/03/03 10:39:40;;;;;;;81.43;30.38;;;;;;;;;;5105623;27;20068;-75
2022/03/03 10:42:19;;;;;;;79.72;28.73;;;;;;;;;;5085674;27;20650;-75
2022/03/03 10:44:48;;;;;;;69.10;27.33;;;;;;;;;;5077096;28;20106;-76
2022/03/03 10:47:20;;;;;;;61.03;23.10;;;;;;;;;;5090421;28;20024;-73
2022/03/03 10:49:47;;;;;;;68.45;26.50;;;;;;;;;;5107822;27;20043;-75
2022/03/03 10:52:20;;;;;;;62.97;25.33;;;;;;;;;;5108148;27;20074;-77
2022/03/03 10:55:11;;;;;;;77.32;27.35;;;;;;;;;;5090316;27;20558;-75
2022/03/03 10:57:57;;;;;;;63.17;26.25;;;;;;;;;;5105044;27;20081;-76
2022/03/03 11:00:23;;;;;;;64.15;26.55;;;;;;;;;;5099500;27;20044;-74
2022/03/03 11:02:56;;;;;;;67.45;26.45;;;;;;;;;;5103067;27;20085;-77
2022/03/03 11:05:23;;;;;;;76.47;29.60;;;;;;;;;;5100113;27;20031;-74
2022/03/03 11:07:50;;;;;;;79.93;31.15;;;;;;;;;;5106139;27;20496;-77
2022/03/03 11:10:21;;;;;;;82.95;32.05;;;;;;;;;;5100333;27;20040;-75
2022/03/03 11:12:48;;;;;;;118.38;41.45;;;;;;;;;;5104408;28;20122;-73
2022/03/03 11:15:17;;;;;;;105.00;40.30;;;;;;;;;;5103402;27;20121;-74
2022/03/03 11:17:43;;;;;;;101.13;39.75;;;;;;;;;;5106428;27;20031;-69
2022/03/03 11:20:12;;;;;;;93.70;39.53;;;;;;;;;;5100243;27;20038;-71
2022/03/03 11:22:38;;;;;;;87.05;36.90;;;;;;;;;;5106251;27;20050;-73
2022/03/03 11:25:14;;;;;;;85.93;36.40;;;;;;;;;;5105952;27;20047;-73
2022/03/03 11:27:41;;;;;;;65.88;28.48;;;;;;;;;;5097802;27;21163;-73
2022/03/03 11:30:30;;;;;;;64.35;28.98;;;;;;;;;;5094926;28;20040;-73
2022/03/03 11:33:26;;;;;;;65.18;25.98;;;;;;;;;;5103461;27;20035;-73
2022/03/03 11:35:58;;;;;;;59.65;25.35;;;;;;;;;;5102286;27;20035;-73
2022/03/03 11:38:26;;;;;;;60.05;26.27;;;;;;;;;;5113288;27;20027;-73
2022/03/03 11:40:54;;;;;;;56.78;25.95;;;;;;;;;;5109005;27;20493;-73
2022/03/03 11:43:20;;;;;;;57.90;26.38;;;;;;;;;;5090193;27;20111;-73
2022/03/03 11:45:51;;;;;;;62.13;25.67;;;;;;;;;;5087058;28;20119;-73
2022/03/03 11:48:19;;;;;;;55.42;25.55;;;;;;;;;;5093933;28;20534;-73
2022/03/03 11:50:45;;;;;;;58.10;25.48;;;;;;;;;;5099262;28;20874;-73
2022/03/03 11:53:10;;;;;;;54.08;23.90;;;;;;;;;;5102301;27;20073;-73
2022/03/03 11:55:37;;;;;;;58.67;25.05;;;;;;;;;;5105864;27;20043;-73
2022/03/03 11:58:08;;;;;;;57.75;25.42;;;;;;;;;;5101294;27;20943;-73
2022/03/03 12:00:38;;;;;;;50.45;22.80;;;;;;;;;;5102358;28;20042;-73
2022/03/03 12:03:05;;;;;;;59.22;25.25;;;;;;;;;;5104699;27;20075;-73
2022/03/03 12:05:33;;;;;;;55.60;24.85;;;;;;;;;;5105709;27;20042;-73
2022/03/03 12:08:27;;;;;;;58.70;25.30;;;;;;;;;;5099257;28;20032;-73
2022/03/03 12:10:58;;;;;;;;;;;;;;;;;;5100341;28;20165;-73
2022/03/03 12:13:26;;;;;;;59.45;24.17;;;;;;;;;;5095441;27;19930;-73
2022/03/03 12:16:19;;;;;;;57.53;25.58;;;;;;;;;;5096478;27;20538;-73
2022/03/03 12:18:50;;;;;;;60.28;24.63;;;;;;;;;;5099755;27;20047;-73
2022/03/03 12:21:32;;;;;;;54.53;27.70;;;;;;;;;;5100466;28;20027;-73
2022/03/03 12:24:13;;;;;;;54.80;24.83;;;;;;;;;;5101365;27;20599;-73
2022/03/03 12:26:56;;;;;;;54.55;24.88;;;;;;;;;;5106448;27;20045;-73
2022/03/03 12:29:31;;;;;;;;;;;;;;;;;;5096882;27;20039;-73
2022/03/03 12:31:57;;;;;;;58.92;24.67;;;;;;;;;;5107324;27;19915;-73
2022/03/03 12:34:22;;;;;;;53.83;23.80;;;;;;;;;;5107570;27;20119;-73
2022/03/03 12:36:54;;;;;;;57.00;23.75;;;;;;;;;;5099214;27;20131;-73
2022/03/03 12:39:19;;;;;;;59.63;27.13;;;;;;;;;;5097834;27;20412;-73
2022/03/03 12:41:45;;;;;;;55.65;24.50;;;;;;;;;;5104494;27;20504;-73
2022/03/03 12:44:13;;;;;;;58.30;24.27;;;;;;;;;;5083983;28;20024;-73
2022/03/03 12:46:41;;;;;;;51.92;24.33;;;;;;;;;;5080688;28;20107;-73
2022/03/03 12:49:09;;;;;;;52.90;24.90;;;;;;;;;;5081245;27;20090;-73
2022/03/03 12:51:41;;;;;;;50.25;23.73;;;;;;;;;;5082356;27;20174;-73
2022/03/03 12:54:07;;;;;;;53.13;25.23;;;;;;;;;;5079803;28;20097;-73
2022/03/03 12:56:33;;;;;;;56.08;24.17;;;;;;;;;;5080931;28;20509;-73
2022/03/03 12:59:07;;;;;;;57.05;24.42;;;;;;;;;;5104460;28;20043;-73
2022/03/03 13:01:34;;;;;;;57.47;26.00;;;;;;;;;;5106534;27;20039;-73
2022/03/03 13:04:03;;;;;;;54.78;24.80;;;;;;;;;;5116824;27;20419;-73
2022/03/03 13:06:29;;;;;;;58.85;25.13;;;;;;;;;;5101655;28;20027;-74
2022/03/03 13:09:04;;;;;;;59.80;25.15;;;;;;;;;;5105240;27;20040;-75
2022/03/03 13:11:30;;;;;;;57.05;24.88;;;;;;;;;;5098399;28;20120;-75
2022/03/03 13:13:59;;;;;;;52.78;24.63;;;;;;;;;;5101430;28;20483;-74
2022/03/03 13:16:26;;;;;;;52.45;23.85;;;;;;;;;;5101271;28;20039;-74
2022/03/03 13:18:55;;;;;;;54.38;24.38;;;;;;;;;;5108001;27;20435;-73
2022/03/03 13:21:26;;;;;;;51.03;22.42;;;;;;;;;;5109660;27;20111;-74
2022/03/03 13:23:57;;;;;;;56.85;24.30;;;;;;;;;;5104501;27;20047;-74
2022/03/03 13:26:53;;;;;;;51.25;23.27;;;;;;;;;;5101500;27;20027;-74
2022/03/03 13:29:22;;;;;;;53.55;23.95;;;;;;;;;;5091770;27;20035;-74
2022/03/03 13:31:48;;;;;;;54.58;25.67;;;;;;;;;;5111041;28;20397;-74
2022/03/03 13:34:24;;;;;;;51.35;23.75;;;;;;;;;;5102931;27;20035;-75
2022/03/03 13:36:52;;;;;;;58.33;24.60;;;;;;;;;;5098437;27;20035;-74
2022/03/03 13:39:35;;;;;;;49.85;22.50;;;;;;;;;;5104258;27;20641;-74
2022/03/03 13:42:04;;;;;;;55.58;23.02;;;;;;;;;;5103414;27;20142;-74
2022/03/03 13:44:33;;;;;;;48.53;23.05;;;;;;;;;;5107704;27;20027;-74
2022/03/03 13:47:01;;;;;;;56.33;23.40;;;;;;;;;;5111737;27;20028;-74
2022/03/03 13:49:32;;;;;;;52.97;22.70;;;;;;;;;;5109952;27;20036;-75
2022/03/03 13:52:27;;;;;;;50.42;23.27;;;;;;;;;;5103902;27;20036;-74
2022/03/03 13:54:58;;;;;;;60.17;23.35;;;;;;;;;;5091732;27;20097;-74
2022/03/03 13:57:38;;;;;;;50.65;23.95;;;;;;;;;;5109914;27;20134;-74
2022/03/03 14:00:17;;;;;;;53.85;24.35;;;;;;;;;;5103541;27;20063;-74
2022/03/03 14:02:49;;;;;;;53.38;23.75;;;;;;;;;;5100349;28;20786;-74
2022/03/03 14:05:15;;;;;;;54.08;23.52;;;;;;;;;;5108738;28;20016;-74
2022/03/03 14:07:50;;;;;;;54.72;28.02;;;;;;;;;;5103615;27;20088;-74
2022/03/03 14:10:15;;;;;;;53.85;23.30;;;;;;;;;;5099749;27;20056;-75
2022/03/03 14:12:59;;;;;;;58.38;24.35;;;;;;;;;;5102156;27;20074;-74
2022/03/03 14:15:26;;;;;;;49.00;24.00;;;;;;;;;;5105341;27;20571;-75
2022/03/03 14:17:51;;;;;;;58.60;24.20;;;;;;;;;;5101823;27;20411;-75
2022/03/03 14:20:18;;;;;;;56.33;24.08;;;;;;;;;;5094237;27;20024;-76
2022/03/03 14:22:53;;;;;;;55.25;25.40;;;;;;;;;;5106285;27;20059;-79
2022/03/03 14:25:19;;;;;;;61.08;24.95;;;;;;;;;;5105982;27;20051;-75
2022/03/03 14:27:44;;;;;;;54.38;23.67;;;;;;;;;;5095649;28;20032;-76